Time;durP1;ratioP1;P1;durP2;ratioP2;P2;SDS_P1;SDS_P2;PMS_P1;PMS_P2;Temp;Humidity;BMP_temperature;BMP_pressure;BME280_temperature;BME280_humidity;BME280_pressure;Samples;Min_cycle;Max_cycle;Signal;HPM_P1;HPM_P2
2022/11/27 00:00:09;;;;;;;14.17;6.87;;;;;;;5.91;66.15;102135.63;687607;28;1065;-81
2022/11/27 00:00:50;;;;;;;13.68;7.50;;;;;;;5.94;66.03;102142.72;682684;28;1223;-82
2022/11/27 00:01:13;;;;;;;12.40;7.23;;;;;;;5.87;66.21;102136.19;680563;29;1439;-82
2022/11/27 00:01:36;;;;;;;13.07;7.43;;;;;;;5.85;66.11;102130.91;681472;29;950;-81
2022/11/27 00:01:56;;;;;;;14.98;8.10;;;;;;;5.84;66.20;102129.09;679505;29;1010;-82
2022/11/27 00:02:20;;;;;;;15.48;8.45;;;;;;;5.88;66.04;102140.56;684693;29;1271;-81
2022/11/27 00:02:42;;;;;;;15.40;8.43;;;;;;;5.79;66.14;102124.41;684847;29;947;-81
2022/11/27 00:03:03;;;;;;;13.00;8.38;;;;;;;5.79;66.24;102126.97;683489;29;1465;-81
2022/11/27 00:03:25;;;;;;;11.02;8.15;;;;;;;5.85;66.22;102140.38;685304;29;926;-81
2022/11/27 00:03:47;;;;;;;10.88;8.05;;;;;;;5.77;66.68;102126.00;684641;28;1310;-81
2022/11/27 00:04:10;;;;;;;11.23;7.57;;;;;;;5.81;66.36;102130.56;678557;29;1431;-81
2022/11/27 00:04:31;;;;;;;15.10;8.30;;;;;;;5.75;66.67;102121.59;679288;29;804;-81
2022/11/27 00:04:51;;;;;;;16.58;8.57;;;;;;;5.79;66.53;102133.06;680568;29;788;-82
2022/11/27 00:05:12;;;;;;;15.73;8.60;;;;;;;5.72;66.36;102121.38;684431;29;1211;-81
2022/11/27 00:05:35;;;;;;;12.40;7.88;;;;;;;5.71;66.45;102122.16;681998;29;886;-81
2022/11/27 00:05:57;;;;;;;10.82;7.35;;;;;;;5.73;66.65;102125.78;680836;29;1199;-81
2022/11/27 00:06:23;;;;;;;12.82;7.95;;;;;;;5.67;66.48;102117.59;678832;29;1038;-81
2022/11/27 00:06:43;;;;;;;14.27;8.20;;;;;;;5.71;66.61;102129.94;682263;29;891;-81
2022/11/27 00:07:04;;;;;;;14.52;8.07;;;;;;;5.71;66.60;102114.41;680359;29;1174;-81
2022/11/27 00:07:25;;;;;;;13.90;7.70;;;;;;;5.68;66.61;102121.06;680760;29;1153;-81
2022/11/27 00:07:45;;;;;;;12.10;7.70;;;;;;;5.65;66.39;102113.97;686588;28;958;-81
2022/11/27 00:08:06;;;;;;;13.10;7.88;;;;;;;5.64;66.55;102112.16;687336;28;1138;-81
2022/11/27 00:08:28;;;;;;;12.77;8.30;;;;;;;5.68;66.47;102124.56;687317;28;1096;-81
2022/11/27 00:08:51;;;;;;;12.32;8.02;;;;;;;5.63;66.49;102107.78;685266;29;855;-81
2022/11/27 00:09:15;;;;;;;11.25;8.02;;;;;;;5.71;66.53;102129.94;684876;29;1120;-81
2022/11/27 00:09:35;;;;;;;12.68;8.00;;;;;;;5.61;66.45;102112.84;683746;29;1948;-81
2022/11/27 00:09:57;;;;;;;12.30;7.72;;;;;;;5.63;66.75;102115.56;685086;29;973;-82
2022/11/27 00:10:18;;;;;;;11.66;7.50;;;;;;;5.63;66.77;102120.72;679492;29;1091;-81
2022/11/27 00:10:40;;;;;;;11.13;7.50;;;;;;;5.60;66.53;102110.16;677321;29;848;-82
2022/11/27 00:11:12;;;;;;;12.20;7.60;;;;;;;5.62;66.70;102111.16;679333;29;1285;-82
2022/11/27 00:11:33;;;;;;;14.27;7.65;;;;;;;5.56;66.36;102108.13;677048;29;1178;-82
2022/11/27 00:11:54;;;;;;;14.35;7.90;;;;;;;5.53;66.46;102105.34;679856;29;1316;-80
2022/11/27 00:12:15;;;;;;;13.20;7.90;;;;;;;5.57;66.58;102110.84;681849;29;1060;-82
2022/11/27 00:12:36;;;;;;;12.43;8.05;;;;;;;5.59;66.66;102119.63;684307;29;784;-82
2022/11/27 00:12:57;;;;;;;13.07;8.38;;;;;;;5.48;66.85;102105.03;678364;29;939;-81
2022/11/27 00:13:19;;;;;;;12.32;8.05;;;;;;;5.53;66.63;102110.53;681733;29;1184;-82
2022/11/27 00:13:41;;;;;;;13.93;8.05;;;;;;;5.48;66.52;102105.03;684843;29;954;-81
2022/11/27 00:14:03;;;;;;;15.13;8.07;;;;;;;5.47;66.61;102098.94;684418;28;1077;-81
2022/11/27 00:14:23;;;;;;;15.50;8.30;;;;;;;5.44;66.67;102098.72;683758;28;848;-82
2022/11/27 00:14:47;;;;;;;18.70;8.73;;;;;;;5.41;66.48;102095.91;680994;28;1288;-82
2022/11/27 00:15:08;;;;;;;16.13;8.68;;;;;;;5.41;66.82;102098.50;679224;29;1631;-81
2022/11/27 00:15:29;;;;;;;17.05;8.45;;;;;;;5.50;66.92;102115.47;676905;29;832;-81
2022/11/27 00:15:50;;;;;;;15.13;8.38;;;;;;;5.41;66.85;102097.63;676908;29;1270;-82
2022/11/27 00:16:14;;;;;;;19.50;8.70;;;;;;;5.43;67.00;102107.28;676838;29;1168;-81
2022/11/27 00:16:35;;;;;;;18.30;8.52;;;;;;;5.44;66.84;102114.28;679986;29;887;-83
2022/11/27 00:16:58;;;;;;;17.40;8.35;;;;;;;5.41;66.72;102102.78;683423;29;1243;-81
2022/11/27 00:17:19;;;;;;;13.95;8.07;;;;;;;5.42;67.08;102115.84;684753;29;1147;-81
2022/11/27 00:17:44;;;;;;;11.77;8.07;;;;;;;5.36;66.92;102099.88;685291;29;807;-82
2022/11/27 00:18:05;;;;;;;12.93;8.35;;;;;;;5.32;66.90;102098.75;684353;29;1252;-81
2022/11/27 00:18:27;;;;;;;12.57;8.38;;;;;;;5.36;66.96;102094.72;684844;29;918;-81
2022/11/27 00:18:48;;;;;;;13.88;8.10;;;;;;;5.36;66.85;102104.16;680405;29;816;-81
2022/11/27 00:19:10;;;;;;;13.68;8.00;;;;;;;5.38;67.20;102107.75;681860;29;1179;-81
2022/11/27 00:19:30;;;;;;;15.38;8.00;;;;;;;5.33;66.82;102094.47;679601;29;1339;-81
2022/11/27 00:19:51;;;;;;;16.63;8.63;;;;;;;5.44;67.29;102113.34;679026;29;1375;-82
2022/11/27 00:20:25;;;;;;;16.50;8.75;;;;;;;5.36;67.04;102099.88;679633;29;1169;-82
2022/11/27 00:20:46;;;;;;;15.65;8.80;;;;;;;5.44;67.17;102114.28;681525;29;1974;-81
2022/11/27 00:21:12;;;;;;;14.30;8.70;;;;;;;5.31;67.11;102093.47;681826;29;962;-81
2022/11/27 00:21:35;;;;;;;14.15;8.27;;;;;;;5.33;66.94;102099.66;682213;29;998;-81
2022/11/27 00:21:57;;;;;;;13.23;8.30;;;;;;;5.34;67.04;102101.47;681912;29;1107;-82
2022/11/27 00:22:17;;;;;;;13.88;8.35;;;;;;;5.41;66.94;102118.34;681637;29;1177;-81
2022/11/27 00:22:53;;;;;;;16.02;8.93;;;;;;;5.32;66.91;102103.03;680385;29;825;-82
2022/11/27 00:23:14;;;;;;;17.42;9.23;;;;;;;5.32;66.79;102101.34;678530;29;1038;-81
2022/11/27 00:23:34;;;;;;;15.02;8.95;;;;;;;5.29;66.87;102097.66;678533;29;1544;-81
2022/11/27 00:23:59;;;;;;;16.27;9.32;;;;;;;5.35;66.89;102113.63;678102;29;1402;-81
2022/11/27 00:24:20;;;;;;;16.98;9.15;;;;;;;5.34;66.99;102111.81;678674;29;1381;-82
2022/11/27 00:24:42;;;;;;;16.95;9.02;;;;;;;5.22;67.06;102088.56;678845;29;860;-82
2022/11/27 00:25:03;;;;;;;17.25;9.25;;;;;;;5.23;67.16;102092.94;676364;29;1300;-81
2022/11/27 00:25:24;;;;;;;14.00;8.98;;;;;;;5.20;66.97;102091.03;673949;29;1265;-81
2022/11/27 00:25:51;;;;;;;13.65;8.25;;;;;;;5.30;67.27;102108.13;675983;29;907;-81
2022/11/27 00:26:12;;;;;;;14.95;8.32;;;;;;;5.24;67.18;102099.91;675204;29;1073;-82
2022/11/27 00:26:33;;;;;;;16.08;8.90;;;;;;;5.14;67.48;102088.00;678304;29;1159;-82
2022/11/27 00:26:55;;;;;;;15.23;8.77;;;;;;;5.22;67.34;102098.00;675572;29;1445;-82
2022/11/27 00:27:17;;;;;;;15.55;8.85;;;;;;;5.18;67.13;102091.69;677951;29;1095;-82
2022/11/27 00:27:37;;;;;;;14.52;8.50;;;;;;;5.13;67.33;102091.38;683512;29;1399;-82
2022/11/27 00:27:58;;;;;;;14.73;8.70;;;;;;;5.17;67.05;102093.38;683117;28;1396;-81
2022/11/27 00:28:19;;;;;;;15.93;8.70;;;;;;;5.12;67.07;102092.16;677747;29;1129;-81
2022/11/27 00:28:40;;;;;;;17.00;8.88;;;;;;;5.12;67.00;102088.66;675490;29;1462;-82
2022/11/27 00:29:00;;;;;;;14.60;8.40;;;;;;;5.12;67.19;102093.84;680476;29;1369;-82
2022/11/27 00:29:21;;;;;;;13.52;8.27;;;;;;;5.05;67.07;102082.16;680760;29;976;-82
2022/11/27 00:29:42;;;;;;;13.45;8.13;;;;;;;5.12;67.22;102099.94;680950;29;1269;-82
2022/11/27 00:30:04;;;;;;;14.14;8.04;;;;;;;5.11;67.12;102100.72;677639;29;1460;-82
2022/11/27 00:30:24;;;;;;;13.23;7.97;;;;;;;5.11;67.26;102095.56;685836;28;1395;-81
2022/11/27 00:30:46;;;;;;;13.43;8.30;;;;;;;5.17;66.88;102106.31;683398;28;808;-81
2022/11/27 00:31:18;;;;;;;13.95;8.30;;;;;;;5.09;67.25;102086.75;684306;28;1445;-82
2022/11/27 00:31:39;;;;;;;14.27;7.78;;;;;;;5.10;66.91;102092.84;678139;29;1129;-82
2022/11/27 00:32:01;;;;;;;14.53;7.80;;;;;;;5.17;67.03;102088.19;676366;29;1208;-81
2022/11/27 00:32:21;;;;;;;14.52;8.10;;;;;;;5.26;67.02;102098.31;676564;29;1206;-81
2022/11/27 00:32:43;;;;;;;14.98;8.60;;;;;;;5.31;66.71;102093.47;679193;29;1374;-82
2022/11/27 00:33:04;;;;;;;13.25;8.70;;;;;;;5.30;66.56;102094.25;681726;28;1151;-81
2022/11/27 00:33:25;;;;;;;14.38;8.52;;;;;;;5.10;66.62;102080.81;682123;29;809;-82
2022/11/27 00:33:46;;;;;;;14.30;8.40;;;;;;;5.23;66.56;102089.44;686963;28;1460;-80
2022/11/27 00:34:07;;;;;;;14.02;8.30;;;;;;;5.20;66.43;102083.25;687139;28;1069;-80
2022/11/27 00:34:28;;;;;;;13.00;8.30;;;;;;;5.24;66.54;102083.47;687134;28;1222;-79
2022/11/27 00:34:49;;;;;;;13.52;8.00;;;;;;;5.29;66.24;102090.75;688158;28;779;-82
2022/11/27 00:35:10;;;;;;;14.45;8.10;;;;;;;5.32;66.49;102109.13;690331;28;1102;-82
2022/11/27 00:35:30;;;;;;;13.00;8.25;;;;;;;5.27;66.46;102086.28;686891;28;1129;-82
2022/11/27 00:35:52;;;;;;;13.95;8.90;;;;;;;5.33;66.03;102091.88;683496;29;901;-82
2022/11/27 00:36:13;;;;;;;13.15;8.98;;;;;;;5.33;66.30;102095.38;684156;29;1251;-82
2022/11/27 00:36:35;;;;;;;14.52;8.75;;;;;;;5.25;66.09;102085.25;683820;28;1819;-81
2022/11/27 00:36:55;;;;;;;14.98;8.60;;;;;;;5.28;66.18;102091.56;684159;28;932;-81
2022/11/27 00:37:17;;;;;;;15.18;8.70;;;;;;;5.32;66.13;102093.59;689023;28;1484;-81
2022/11/27 00:37:39;;;;;;;14.60;8.20;;;;;;;5.33;66.09;102095.38;687248;28;1515;-82
2022/11/27 00:38:00;;;;;;;15.30;8.02;;;;;;;5.27;65.80;102088.88;687348;28;1188;-82
2022/11/27 00:38:21;;;;;;;14.38;7.30;;;;;;;5.35;65.94;102098.09;687147;28;1331;-82
2022/11/27 00:38:42;;;;;;;12.95;7.95;;;;;;;5.37;66.07;102098.19;684528;29;818;-80
2022/11/27 00:39:04;;;;;;;11.80;8.57;;;;;;;5.24;65.98;102084.38;681693;29;1372;-81
2022/11/27 00:39:26;;;;;;;14.18;9.25;;;;;;;5.30;66.13;102099.44;682614;29;1418;-82
2022/11/27 00:39:48;;;;;;;14.38;8.55;;;;;;;5.24;65.66;102092.16;687497;28;1314;-82
2022/11/27 00:40:09;;;;;;;11.82;8.13;;;;;;;5.22;65.93;102085.06;687146;28;1010;-82
2022/11/27 00:40:31;;;;;;;11.48;8.32;;;;;;;5.24;65.98;102086.97;687390;28;1889;-82
2022/11/27 00:40:51;;;;;;;12.98;8.85;;;;;;;5.27;66.25;102094.06;687489;28;1461;-81
2022/11/27 00:41:22;;;;;;;16.88;8.80;;;;;;;5.17;66.28;102083.03;686573;28;1242;-82
2022/11/27 00:41:44;;;;;;;18.85;9.00;;;;;;;5.21;65.91;102089.31;689968;28;866;-82
2022/11/27 00:42:04;;;;;;;15.75;8.80;;;;;;;5.16;66.37;102080.34;686713;28;1265;-81
2022/11/27 00:42:25;;;;;;;12.80;8.90;;;;;;;5.17;66.25;102083.03;686197;28;828;-82
2022/11/27 00:42:46;;;;;;;13.03;8.60;;;;;;;5.13;66.19;102073.25;683896;29;854;-81
2022/11/27 00:43:06;;;;;;;14.98;8.50;;;;;;;5.17;66.18;102082.13;683131;29;1347;-82
2022/11/27 00:43:27;;;;;;;15.77;8.43;;;;;;;5.15;66.08;102082.03;683590;29;835;-82
2022/11/27 00:43:48;;;;;;;16.80;9.33;;;;;;;5.13;66.51;102073.25;681206;29;825;-81
2022/11/27 00:44:10;;;;;;;15.65;9.68;;;;;;;5.12;66.24;102071.47;681881;28;1219;-81
2022/11/27 00:44:33;;;;;;;15.95;10.05;;;;;;;5.23;66.30;102092.03;682564;29;981;-81
2022/11/27 00:44:54;;;;;;;15.23;10.10;;;;;;;5.14;66.25;102082.81;681355;29;1434;-82
2022/11/27 00:45:14;;;;;;;15.80;10.05;;;;;;;5.12;66.16;102068.88;679239;29;1405;-82
2022/11/27 00:45:35;;;;;;;16.07;9.67;;;;;;;5.11;66.22;102077.44;676913;29;1091;-81
2022/11/27 00:45:56;;;;;;;16.58;9.40;;;;;;;5.16;66.12;102085.53;677306;29;1003;-82
2022/11/27 00:46:23;;;;;;;16.80;9.07;;;;;;;5.16;66.28;102086.41;677284;29;1244;-81
2022/11/27 00:46:44;;;;;;;15.38;9.10;;;;;;;5.03;66.32;102088.94;676432;29;898;-81
2022/11/27 00:47:05;;;;;;;16.02;9.32;;;;;;;4.92;66.47;102072.63;680816;29;1090;-82
2022/11/27 00:47:28;;;;;;;16.50;9.15;;;;;;;4.91;66.37;102079.47;686646;28;931;-82
2022/11/27 00:47:49;;;;;;;17.65;9.13;;;;;;;4.95;66.32;102070.25;686836;28;864;-82
2022/11/27 00:48:11;;;;;;;17.27;8.80;;;;;;;4.93;66.94;102083.06;686631;28;1052;-82
2022/11/27 00:48:36;;;;;;;17.15;8.80;;;;;;;4.87;67.04;102085.22;686849;28;949;-82
2022/11/27 00:48:58;;;;;;;16.40;9.15;;;;;;;4.78;66.96;102076.78;685149;29;795;-81
2022/11/27 00:49:28;;;;;;;16.92;9.60;;;;;;;4.81;67.12;102087.38;681095;29;1255;-82
2022/11/27 00:49:49;;;;;;;16.45;9.38;;;;;;;4.82;67.33;102094.34;678605;29;1274;-81
2022/11/27 00:50:09;;;;;;;14.00;8.77;;;;;;;4.74;67.29;102074.78;683604;29;1433;-82
2022/11/27 00:50:31;;;;;;;12.75;8.75;;;;;;;4.79;67.30;102081.19;683923;29;945;-82
2022/11/27 00:50:51;;;;;;;11.90;8.98;;;;;;;4.91;67.16;102083.75;683737;28;910;-82
2022/11/27 00:51:21;;;;;;;14.70;9.50;;;;;;;4.96;66.78;102082.38;682658;29;1274;-82
2022/11/27 00:51:42;;;;;;;17.00;9.27;;;;;;;4.98;66.63;102075.66;681533;29;843;-81
2022/11/27 00:52:02;;;;;;;16.20;8.93;;;;;;;5.08;66.53;102092.72;681289;29;1097;-81
2022/11/27 00:52:23;;;;;;;15.23;8.65;;;;;;;5.00;66.90;102075.75;682145;29;938;-81
2022/11/27 00:52:44;;;;;;;14.88;9.27;;;;;;;5.05;66.17;102093.41;684913;28;786;-81
2022/11/27 00:53:04;;;;;;;15.73;9.30;;;;;;;5.02;66.36;102082.84;686970;28;1112;-82
2022/11/27 00:53:25;;;;;;;15.10;9.10;;;;;;;4.98;66.40;102072.16;686873;28;994;-81
2022/11/27 00:53:48;;;;;;;15.55;9.30;;;;;;;4.97;66.37;102073.84;686730;28;835;-82
2022/11/27 00:54:09;;;;;;;14.52;9.00;;;;;;;5.02;66.24;102092.28;686049;28;1044;-81
2022/11/27 00:54:30;;;;;;;16.95;9.48;;;;;;;4.99;66.39;102081.72;688822;28;1570;-82
2022/11/27 00:54:50;;;;;;;15.43;9.55;;;;;;;4.99;66.12;102076.53;688135;28;984;-82
2022/11/27 00:55:11;;;;;;;16.43;9.70;;;;;;;4.97;66.16;102073.84;688609;28;1102;-82
2022/11/27 00:55:31;;;;;;;14.02;9.30;;;;;;;5.07;66.19;102090.94;686026;28;1173;-81
2022/11/27 00:55:53;;;;;;;14.90;8.88;;;;;;;4.99;66.26;102081.72;686842;28;1167;-82
2022/11/27 00:56:24;;;;;;;14.32;9.02;;;;;;;4.96;65.97;102072.03;684002;28;1134;-82
2022/11/27 00:56:46;;;;;;;16.10;9.70;;;;;;;5.00;65.96;102083.50;683832;29;843;-81
2022/11/27 00:57:07;;;;;;;15.23;9.45;;;;;;;5.00;66.12;102079.25;683612;28;1004;-82
2022/11/27 00:57:28;;;;;;;15.95;9.00;;;;;;;4.93;66.16;102077.88;685095;29;796;-81
2022/11/27 00:57:48;;;;;;;15.30;8.90;;;;;;;4.90;66.30;102069.00;687227;28;1021;-81
2022/11/27 00:58:11;;;;;;;16.63;9.50;;;;;;;4.96;65.92;102091.84;684142;28;1302;-82
2022/11/27 00:58:32;;;;;;;15.40;9.30;;;;;;;4.92;66.21;102082.97;686949;28;1213;-81
2022/11/27 00:58:53;;;;;;;15.45;9.00;;;;;;;4.99;66.08;102094.66;686962;28;993;-82
2022/11/27 00:59:14;;;;;;;13.63;8.73;;;;;;;4.89;66.46;102078.47;685700;28;1095;-82
2022/11/27 00:59:34;;;;;;;14.02;8.93;;;;;;;4.92;66.45;102081.25;686518;28;748;-82
2022/11/27 00:59:56;;;;;;;14.32;8.70;;;;;;;4.92;66.27;102083.84;683880;28;1232;-81
2022/11/27 01:00:17;;;;;;;14.05;8.40;;;;;;;4.93;66.29;102082.19;685491;28;1185;-81
2022/11/27 01:00:38;;;;;;;14.77;8.93;;;;;;;4.87;66.15;102066.22;680766;29;1903;-81
2022/11/27 01:01:01;;;;;;;15.27;9.07;;;;;;;4.92;66.38;102081.25;681582;29;1111;-81
2022/11/27 01:01:29;;;;;;;14.32;9.00;;;;;;;5.01;66.11;102093.06;682093;29;953;-81
2022/11/27 01:01:51;;;;;;;12.64;8.86;;;;;;;5.01;66.53;102093.97;678939;29;816;-82
2022/11/27 01:02:11;;;;;;;15.10;9.20;;;;;;;4.91;66.35;102073.41;679229;29;1038;-81
2022/11/27 01:02:32;;;;;;;16.63;9.30;;;;;;;5.02;66.31;102092.28;683195;29;922;-81
2022/11/27 01:02:54;;;;;;;15.40;8.90;;;;;;;4.90;66.32;102077.69;684359;29;841;-82
2022/11/27 01:03:15;;;;;;;12.95;8.50;;;;;;;4.89;66.25;102075.88;687020;28;1124;-81
2022/11/27 01:03:36;;;;;;;14.77;8.60;;;;;;;4.96;66.18;102082.38;686930;28;834;-81
2022/11/27 01:03:58;;;;;;;15.35;8.80;;;;;;;4.90;66.13;102066.41;688979;28;791;-81
2022/11/27 01:04:18;;;;;;;16.17;8.98;;;;;;;4.92;66.26;102073.50;688726;28;1125;-82
2022/11/27 01:04:39;;;;;;;15.13;9.10;;;;;;;4.92;66.28;102070.91;684657;28;1065;-82
2022/11/27 01:04:59;;;;;;;15.70;9.30;;;;;;;4.78;66.49;102067.34;681075;29;1073;-82
2022/11/27 01:05:20;;;;;;;15.20;9.13;;;;;;;4.86;66.40;102065.31;682876;29;1226;-82
2022/11/27 01:05:41;;;;;;;14.52;9.10;;;;;;;4.95;66.46;102079.72;683741;28;1119;-81
2022/11/27 01:06:03;;;;;;;15.83;9.30;;;;;;;4.91;66.41;102069.13;683640;29;1298;-82
2022/11/27 01:06:25;;;;;;;16.05;9.80;;;;;;;4.84;66.36;102060.81;680815;29;1233;-82
2022/11/27 01:06:59;;;;;;;15.90;9.68;;;;;;;4.92;66.22;102075.22;680786;29;1058;-82
2022/11/27 01:07:20;;;;;;;14.10;9.32;;;;;;;4.86;66.09;102069.59;680913;29;999;-82
2022/11/27 01:07:40;;;;;;;14.40;9.75;;;;;;;4.86;66.05;102065.31;683429;29;780;-81
2022/11/27 01:08:01;;;;;;;16.25;9.50;;;;;;;4.90;66.15;102081.94;683625;29;955;-81
2022/11/27 01:08:22;;;;;;;16.75;9.05;;;;;;;4.74;66.44;102085.13;684216;29;865;-81
2022/11/27 01:08:48;;;;;;;14.80;8.60;;;;;;;4.78;66.98;102081.94;685183;29;890;-82
2022/11/27 01:09:10;;;;;;;17.30;8.88;;;;;;;4.77;66.46;102075.91;683840;29;1041;-81
2022/11/27 01:09:32;;;;;;;16.80;9.10;;;;;;;4.63;66.61;102073.97;684789;29;930;-81
2022/11/27 01:09:53;;;;;;;15.55;9.70;;;;;;;4.65;66.79;102080.16;685738;28;970;-81
2022/11/27 01:10:14;;;;;;;15.30;10.43;;;;;;;4.71;66.76;102080.59;686329;28;1054;-81
2022/11/27 01:10:34;;;;;;;14.15;10.30;;;;;;;4.72;66.67;102071.19;685291;28;792;-82
2022/11/27 01:10:58;;;;;;;14.70;10.03;;;;;;;4.67;66.64;102082.88;684496;28;883;-81
2022/11/27 01:11:24;;;;;;;14.45;9.70;;;;;;;4.52;66.90;102065.44;683500;29;1086;-81
2022/11/27 01:11:45;;;;;;;14.57;9.80;;;;;;;4.47;67.18;102064.22;685896;28;1277;-82
2022/11/27 01:12:06;;;;;;;15.70;9.70;;;;;;;4.46;67.44;102067.56;686161;28;1183;-81
2022/11/27 01:12:26;;;;;;;15.10;10.07;;;;;;;4.42;67.75;102062.97;687247;28;848;-82
2022/11/27 01:12:48;;;;;;;15.40;10.60;;;;;;;4.46;67.78;102073.63;680904;29;1173;-81
2022/11/27 01:13:09;;;;;;;15.20;10.63;;;;;;;4.48;67.62;102072.06;680905;29;1118;-82
2022/11/27 01:13:35;;;;;;;16.10;10.27;;;;;;;4.67;67.58;102082.88;678169;29;884;-81
2022/11/27 01:14:00;;;;;;;17.42;10.07;;;;;;;4.73;67.34;102078.16;678349;29;803;-81
2022/11/27 01:14:21;;;;;;;15.85;9.57;;;;;;;4.71;66.82;102071.97;680554;29;1216;-82
2022/11/27 01:14:41;;;;;;;14.45;9.10;;;;;;;4.66;66.99;102063.84;680755;29;808;-81
2022/11/27 01:15:03;;;;;;;15.03;9.47;;;;;;;4.70;67.01;102071.06;681253;29;1150;-82
2022/11/27 01:15:23;;;;;;;16.35;9.45;;;;;;;4.68;66.94;102063.97;683405;29;1126;-81
2022/11/27 01:16:14;;;;;;;17.70;9.10;;;;;;;4.80;66.80;102088.16;680672;29;1032;-82
2022/11/27 01:16:34;;;;;;;14.05;8.90;;;;;;;4.79;66.61;102078.59;683301;29;1466;-82
2022/11/27 01:16:55;;;;;;;13.80;9.25;;;;;;;4.64;66.57;102076.69;686105;28;770;-82
2022/11/27 01:17:16;;;;;;;15.18;9.48;;;;;;;4.54;66.87;102068.13;687037;28;1021;-81
2022/11/27 01:17:36;;;;;;;15.10;9.63;;;;;;;4.48;67.13;102066.88;688026;28;729;-82
2022/11/27 01:17:57;;;;;;;14.80;9.77;;;;;;;4.59;66.79;102078.03;689728;28;1221;-81
2022/11/27 01:18:18;;;;;;;12.63;9.40;;;;;;;4.63;66.72;102073.97;686224;28;1351;-82
2022/11/27 01:18:41;;;;;;;14.40;9.80;;;;;;;4.65;66.74;102081.06;684298;28;806;-81
2022/11/27 01:19:03;;;;;;;13.93;9.95;;;;;;;4.68;66.66;102077.81;678698;29;1910;-81
2022/11/27 01:19:24;;;;;;;14.50;9.85;;;;;;;4.74;67.05;102091.19;678429;29;1045;-82
2022/11/27 01:19:46;;;;;;;12.68;9.35;;;;;;;4.58;66.88;102067.56;679268;29;895;-81
2022/11/27 01:20:07;;;;;;;13.75;9.20;;;;;;;4.45;67.29;102073.50;681025;29;1044;-80
2022/11/27 01:20:27;;;;;;;13.52;9.40;;;;;;;4.48;67.08;102094.44;679767;29;959;-82
2022/11/27 01:20:51;;;;;;;13.50;9.50;;;;;;;4.48;67.42;102071.19;687814;28;1897;-80
2022/11/27 01:21:13;;;;;;;11.93;9.05;;;;;;;4.57;67.18;102077.03;682122;29;1131;-82
2022/11/27 01:21:34;;;;;;;11.90;8.90;;;;;;;4.58;67.06;102065.88;681460;29;1026;-82
2022/11/27 01:21:56;;;;;;;12.05;9.10;;;;;;;4.49;67.18;102094.53;681914;29;815;-81
2022/11/27 01:22:17;;;;;;;14.52;9.60;;;;;;;4.36;67.41;102087.56;679288;29;1254;-82
2022/11/27 01:22:37;;;;;;;16.15;9.60;;;;;;;4.29;67.69;102079.25;678927;29;836;-81
2022/11/27 01:22:58;;;;;;;16.97;9.30;;;;;;;4.29;67.48;102080.13;687262;28;1175;-81
2022/11/27 01:23:19;;;;;;;16.00;9.15;;;;;;;4.29;67.77;102085.28;689921;28;1068;-82
2022/11/27 01:23:41;;;;;;;14.02;9.10;;;;;;;4.35;68.04;102103.84;686338;28;1004;-82
2022/11/27 01:24:03;;;;;;;13.13;9.20;;;;;;;4.33;68.04;102097.69;686727;28;1038;-81
2022/11/27 01:24:24;;;;;;;15.63;9.55;;;;;;;4.24;67.96;102078.91;686242;28;796;-81
2022/11/27 01:24:59;;;;;;;16.70;9.63;;;;;;;4.27;67.79;102091.13;686525;28;993;-81
2022/11/27 01:25:20;;;;;;;17.17;9.43;;;;;;;4.24;68.31;102090.13;683415;28;1034;-81
2022/11/27 01:25:42;;;;;;;15.07;8.90;;;;;;;4.22;67.90;102086.53;686645;28;1484;-81
2022/11/27 01:26:05;;;;;;;12.48;8.38;;;;;;;4.33;67.81;102107.09;686844;28;1106;-81
2022/11/27 01:26:26;;;;;;;11.93;8.77;;;;;;;4.38;67.75;102074.75;686263;28;855;-81
2022/11/27 01:26:47;;;;;;;16.13;9.48;;;;;;;4.46;67.67;102076.22;684652;29;969;-81
2022/11/27 01:27:08;;;;;;;16.33;9.77;;;;;;;4.59;67.56;102088.38;684254;29;966;-81
2022/11/27 01:27:31;;;;;;;16.45;9.82;;;;;;;4.59;67.15;102082.31;685047;29;993;-81
2022/11/27 01:27:53;;;;;;;14.90;9.63;;;;;;;4.67;67.24;102083.78;683989;29;993;-81
2022/11/27 01:28:17;;;;;;;16.05;9.45;;;;;;;4.64;67.32;102078.34;687817;28;1251;-81
2022/11/27 01:28:38;;;;;;;18.13;8.93;;;;;;;4.57;67.11;102087.38;687978;28;895;-81
2022/11/27 01:28:59;;;;;;;17.65;8.70;;;;;;;4.43;67.31;102069.94;688284;28;962;-82
2022/11/27 01:29:20;;;;;;;18.23;9.00;;;;;;;4.38;67.27;102083.38;688449;28;1133;-82
2022/11/27 01:29:40;;;;;;;14.35;8.90;;;;;;;4.33;67.52;102074.41;686272;28;837;-82
2022/11/27 01:30:02;;;;;;;14.48;9.00;;;;;;;4.29;67.65;102080.13;682322;29;1072;-82
2022/11/27 01:30:23;;;;;;;12.18;8.50;;;;;;;4.28;67.58;102083.50;680630;29;1195;-82
2022/11/27 01:30:43;;;;;;;12.88;8.77;;;;;;;4.24;67.93;102079.78;678118;29;776;-82
2022/11/27 01:31:06;;;;;;;13.30;8.77;;;;;;;4.23;67.71;102074.53;680496;29;1257;-82
2022/11/27 01:31:30;;;;;;;15.52;9.07;;;;;;;4.24;67.58;102076.31;680935;29;820;-82
2022/11/27 01:31:50;;;;;;;15.38;9.10;;;;;;;4.21;67.77;102070.88;680800;29;901;-81
2022/11/27 01:32:11;;;;;;;15.65;9.32;;;;;;;4.17;67.88;102064.56;680664;29;1263;-82
2022/11/27 01:32:31;;;;;;;15.63;9.40;;;;;;;4.22;67.95;102073.63;681694;29;1259;-81
2022/11/27 01:32:52;;;;;;;14.23;8.93;;;;;;;4.22;67.69;102075.28;679979;29;1504;-82
2022/11/27 01:33:13;;;;;;;12.35;8.45;;;;;;;4.15;68.04;102070.41;678357;29;1340;-81
2022/11/27 01:33:34;;;;;;;12.82;8.30;;;;;;;4.28;67.85;102086.09;678541;29;745;-82
2022/11/27 01:34:00;;;;;;;14.90;8.73;;;;;;;4.17;68.22;102068.84;681361;29;1180;-82
2022/11/27 01:34:22;;;;;;;14.80;8.90;;;;;;;4.16;67.98;102067.06;680464;29;1074;-81
2022/11/27 01:34:44;;;;;;;13.60;8.70;;;;;;;4.13;67.98;102065.13;680848;29;836;-82
2022/11/27 01:35:05;;;;;;;12.00;8.63;;;;;;;4.23;68.18;102082.28;683467;28;1105;-81
2022/11/27 01:35:25;;;;;;;11.23;8.35;;;;;;;4.22;68.13;102081.38;683707;29;784;-81
2022/11/27 01:35:56;;;;;;;14.07;9.10;;;;;;;4.18;68.08;102075.81;680905;29;1087;-82
2022/11/27 01:36:19;;;;;;;14.77;9.15;;;;;;;4.23;68.23;102079.69;683231;28;1176;-81
2022/11/27 01:36:39;;;;;;;13.55;9.35;;;;;;;4.15;68.14;102070.41;683248;28;1015;-81
2022/11/27 01:37:00;;;;;;;15.95;9.63;;;;;;;4.11;67.96;102062.44;683528;29;1291;-82
2022/11/27 01:37:21;;;;;;;17.15;9.60;;;;;;;4.14;68.39;102068.59;685424;28;1051;-81
2022/11/27 01:37:41;;;;;;;17.30;9.65;;;;;;;4.13;68.29;102061.66;678102;29;1048;-81
2022/11/27 01:38:03;;;;;;;14.93;9.50;;;;;;;4.14;68.29;102058.28;677864;29;1123;-82
2022/11/27 01:38:25;;;;;;;14.98;9.35;;;;;;;4.15;68.20;102071.31;678320;29;757;-81
2022/11/27 01:38:45;;;;;;;15.07;8.93;;;;;;;4.10;68.21;102065.81;678111;29;1339;-82
2022/11/27 01:39:06;;;;;;;16.02;8.85;;;;;;;4.15;68.25;102070.41;683996;29;1080;-82
2022/11/27 01:39:27;;;;;;;14.35;8.73;;;;;;;4.21;68.24;102089.88;686350;28;1411;-82
2022/11/27 01:39:49;;;;;;;15.75;9.10;;;;;;;4.20;68.25;102075.16;686207;28;863;-81
2022/11/27 01:40:10;;;;;;;15.27;9.30;;;;;;;4.18;68.15;102075.81;685892;28;978;-81
2022/11/27 01:40:32;;;;;;;16.83;10.05;;;;;;;4.25;68.08;102085.88;686811;28;1907;-81
2022/11/27 01:41:05;;;;;;;16.02;9.75;;;;;;;4.24;68.38;102091.81;686619;28;775;-81
2022/11/27 01:41:33;;;;;;;17.35;9.95;;;;;;;4.15;68.20;102065.22;688068;28;970;-82
2022/11/27 01:41:55;;;;;;;18.17;9.80;;;;;;;4.16;68.31;102074.81;688841;28;998;-82
2022/11/27 01:42:15;;;;;;;16.55;9.13;;;;;;;4.19;67.90;102077.63;685999;28;1209;-82
2022/11/27 01:42:38;;;;;;;12.68;8.35;;;;;;;4.14;68.25;102063.44;683412;29;946;-81
2022/11/27 01:42:59;;;;;;;11.15;7.90;;;;;;;4.14;68.40;102064.34;683530;29;1262;-81
2022/11/27 01:43:42;;;;;;;11.63;8.07;;;;;;;4.16;68.31;102073.09;679260;29;1125;-81
2022/11/27 01:44:22;;;;;;;13.35;9.40;;;;;;;4.21;68.19;102081.19;679180;29;1183;-81
2022/11/27 01:44:52;;;;;;;12.05;8.50;;;;;;;4.08;68.46;102064.78;683591;29;870;-81
2022/11/27 01:45:18;;;;;;;13.90;8.90;;;;;;;4.15;68.17;102075.56;684990;28;1329;-81
2022/11/27 01:45:38;;;;;;;14.45;8.90;;;;;;;4.24;68.22;102086.66;683533;29;837;-81
2022/11/27 01:45:59;;;;;;;11.97;8.53;;;;;;;4.15;68.26;102067.81;684445;29;1096;-81
2022/11/27 01:46:25;;;;;;;11.73;8.63;;;;;;;4.22;68.25;102078.78;684453;29;981;-82
2022/11/27 01:46:48;;;;;;;13.32;9.40;;;;;;;4.19;68.24;102075.03;680810;29;918;-81